Pitt Meadows, British Columbia

6:49 PM PST on February 08, 2016 (GMT -0800)
Pitt Meadows Chez Douglas | | Change Station
CLOSE
Current Station
Personal Weather Station
Location: Pitt Meadows, BRITISH COLUMBIA
Elevation: 66 ft
Nearby Weather Stations

Elev 66 ft 49.22 °N, 122.69 °W | Updated 3 minutes ago

Scattered Clouds
Scattered Clouds
47.3 °F
Feels Like 47 °F
N
0.0
Wind Variable Wind from NNW

Today
High -- | Low -- °F
--% Chance of Precip.
Yesterday
High -- | Low -- °F
Precip. -- in
Pressure 30.38 in
Visibility 30.0 miles
Clouds Scattered Clouds 24000 ft
Windchill 47 °F
Dew Point 46 °F
Humidity 96%
Rainfall 0.00 in
Snow Depth Not available.
7:31 AM 5:18 PM
New Moon, 0% visible
METAR CYXX 090200Z 03006KT 30SM SCT240 11/07 A3037 RMK CI3 SLP288
Pressure 30.38 in
Visibility 30.0 miles
Clouds Scattered Clouds 24000 ft
Windchill 47 °F
Dew Point 46 °F
Humidity 96%
Rainfall 0.00 in
Snow Depth Not available.
7:31 AM 5:18 PM
New Moon, 0% visible
METAR CYXX 090200Z 03006KT 30SM SCT240 11/07 A3037 RMK CI3 SLP288

10-Day Weather Forecast

Almanac

Astronomy

Feb. 08, 2016 Rise Set
Actual Time
Civil Twilight
Nautical Twilight
Astronomical Twilight
Moon
Length of Visible Light
Length of Day
Tomorrow will be .
, % of the Moon is Illuminated

Today's Extremes

Country Highs Country Lows

Community

WunderPhotos

Upload Photos

1,891,527 photos uploaded!

WunderBlog® & News

Nearby

Air Quality

  Air Quality AQ Index Pollutant
Not available.

Snow Depth

Station Depth Elevation

Earthquake Activity

City Distance Mag. Time & Date
Minimum magnitude displayed is 2.5.

Coastal Water Temperatures

Place Temperature

Stations

Nearby Weather Stations

Station Location Temp. Windchill Dew Point Humidity Wind Precip. Elev Updated Type
                   

Watches & Warnings

There are currently no watches in effect.